Skip Navigation LinksHome page > Weather > Current weather Skip Navigation Links

Current Weather

Lawrence J Timmerman, Milwaukee

For information only: do not use for flight planning or navigation.
Latest weather
Observation time Tuesday, September 17, 2019 1:55 AM CDT
Local time Tuesday, September 17, 2019 2:04 AM CDT
Flight conditions Low Instrument Meteorological Conditions
Winds
Wind speed calm
Visibility 0.75 mi.
Present weather mist
Sky condition
Ceiling 300 ft. overcast
Cloud layer overcast 300 ft.
Temperature 59°F
Dewpoint 55°F
Altimeter 30.17 in.Hg
Derived measurements
Relative humidity 88%
Density altitude 669 ft.
Remarks
Fully automated report.
Automated weather observing station with precipitation discriminator.
METAR KMWC 170655Z AUTO 00000KT 3/4SM BR OVC003 15/13 A3017 RMK AO2

Settings

Location code

InnerDrive.Weather 4.0.6770.0 Release CLR 4.0.30319.42000
Copyright ©2018 Inner Drive Technology. All rights reserved. Portions Copyright ©1986-2018 David Braverman.

Find weather

Site navigation


Skip Navigation Links

Place info

Page info

PayPal - The safer, easier way to pay online!

Return home.

Copyright ©2019 Inner Drive Technology. Purveyors of fine, hand-crafted computer software. Page printed 2019-09-17T07:04:45 UTC.